Sunday, June 17, 2018, 10:03 PM EDT
Back to Local

KIJD, Willimantic Windham Airport

Location: North Windham, CT, United States Lat: 41.75
Local Time: 10:03 PM EDT ( 2:03 GMT) Lon: -72.183
Time Zone: US/Eastern Elev: 246 ft

Show me the last for .
Show Decoded

2018-06-17 21:52 METAR KIJD 180152Z AUTO 15004KT 10SM CLR 23/14 A3007 RMK AO2 SLP180 T02280139 =
2018-06-17 20:52 METAR KIJD 180052Z AUTO 19005KT 10SM CLR 24/14 A3006 RMK AO2 SLP177 T02440144 =
2018-06-17 19:52 METAR KIJD 172352Z AUTO 19006KT 10SM CLR 26/14 A3006 RMK AO2 SLP178 T02610139
                 10317 20261 51005 =
2018-06-17 18:52 METAR KIJD 172252Z AUTO 19009KT 10SM CLR 28/13 A3006 RMK AO2 SLP178 T02830128 =
2018-06-17 17:52 METAR KIJD 172152Z AUTO 20009KT 10SM CLR 30/13 A3006 RMK AO2 SLP175 T03000133 =
2018-06-17 16:52 METAR KIJD 172052Z AUTO VRB03KT 10SM CLR 31/09 A3005 RMK AO2 SLP173 T03110089
                 58001 =
2018-06-17 15:52 METAR KIJD 171952Z AUTO 28004KT 10SM CLR 32/08 A3005 RMK AO2 SLP174 T03170083 =
2018-06-17 14:52 METAR KIJD 171852Z AUTO 00000KT 10SM CLR 31/09 A3005 RMK AO2 SLP174 T03060089 =
2018-06-17 13:52 METAR KIJD 171752Z AUTO 29005KT 10SM CLR 31/11 A3005 RMK AO2 SLP174 T03060106
                 10311 20172 58014 =
2018-06-17 12:52 METAR KIJD 171652Z AUTO 00000KT 10SM CLR 30/12 A3006 RMK AO2 SLP178 T03000117 =
2018-06-17 11:52 METAR KIJD 171552Z AUTO 23005KT 10SM CLR 29/12 A3008 RMK AO2 SLP184 T02890122 =
2018-06-17 10:52 METAR KIJD 171452Z AUTO 00000KT 10SM CLR 28/15 A3009 RMK AO2 SLP188 T02830150
                 53004 =
2018-06-17 09:52 METAR KIJD 171352Z AUTO 00000KT 10SM CLR 25/16 A3009 RMK AO2 SLP186 T02500161 =
2018-06-17 08:52 METAR KIJD 171252Z AUTO 00000KT 10SM CLR 21/15 A3009 RMK AO2 SLP186 T02110150 =
2018-06-17 07:52 METAR KIJD 171152Z AUTO 00000KT 10SM CLR 17/14 A3008 RMK AO2 SLP184 T01720139
                 10172 20122 53010 =
2018-06-17 06:52 METAR KIJD 171052Z AUTO 00000KT 10SM CLR 14/12 A3007 RMK AO2 SLP181 T01390122 =
2018-06-17 05:52 METAR KIJD 170952Z AUTO 00000KT 10SM CLR 12/11 A3006 RMK AO2 SLP178 T01220111 =
2018-06-17 04:52 METAR KIJD 170852Z AUTO 00000KT 10SM CLR 13/12 A3005 RMK AO2 SLP174 T01280117
                 53005 =
2018-06-17 03:52 METAR KIJD 170752Z AUTO 00000KT 10SM CLR 13/12 A3004 RMK AO2 SLP171 T01280117 =
2018-06-17 02:52 METAR KIJD 170652Z AUTO 00000KT 10SM CLR 14/12 A3003 RMK AO2 SLP168 T01390122 =
2018-06-17 01:52 METAR KIJD 170552Z AUTO 36004KT 10SM CLR 14/13 A3004 RMK AO2 SLP169 T01390128
                 10256 20139 51003 =
2018-06-17 00:52 METAR KIJD 170452Z AUTO 00000KT 10SM CLR 15/13 A3003 RMK AO2 SLP166 T01500133
                 402940089 =
2018-06-16 23:52 METAR KIJD 170352Z AUTO 00000KT 10SM CLR 16/13 A3004 RMK AO2 SLP170 T01560133 =
2018-06-16 22:52 METAR KIJD 170252Z AUTO 01003KT 10SM CLR 17/14 A3003 RMK AO2 SLP166 T01670139
                 51021 =

Support USWX by starting your Amazon purchase here.